sensor_id;sensor_type;location;lat;lon;timestamp;pressure;altitude;pressure_sealevel;temperature;humidity
42511;BME280;28141;51.120;17.114;2023-06-22T00:02:10;101818.97;;;32.66;39.47
42511;BME280;28141;51.120;17.114;2023-06-22T00:05:23;101823.41;;;32.61;39.03
42511;BME280;28141;51.120;17.114;2023-06-22T00:08:37;101825.38;;;32.61;39.49
42511;BME280;28141;51.120;17.114;2023-06-22T00:12:20;101819.70;;;32.56;39.49
42511;BME280;28141;51.120;17.114;2023-06-22T00:15:34;101829.52;;;32.53;39.89
42511;BME280;28141;51.120;17.114;2023-06-22T00:18:48;101824.20;;;32.57;39.11
42511;BME280;28141;51.120;17.114;2023-06-22T00:22:03;101835.13;;;32.53;39.54
42511;BME280;28141;51.120;17.114;2023-06-22T00:25:43;101836.73;;;32.44;39.61
42511;BME280;28141;51.120;17.114;2023-06-22T00:28:57;101844.60;;;32.47;39.48
42511;BME280;28141;51.120;17.114;2023-06-22T00:32:11;101847.96;;;32.44;39.94
42511;BME280;28141;51.120;17.114;2023-06-22T00:35:26;101856.63;;;32.43;39.08
42511;BME280;28141;51.120;17.114;2023-06-22T00:39:09;101868.12;;;32.41;39.60
42511;BME280;28141;51.120;17.114;2023-06-22T00:42:23;101864.66;;;32.34;39.61
42511;BME280;28141;51.120;17.114;2023-06-22T00:45:38;101870.55;;;32.33;39.75
42511;BME280;28141;51.120;17.114;2023-06-22T00:48:52;101877.56;;;32.35;39.36
42511;BME280;28141;51.120;17.114;2023-06-22T00:52:36;101887.05;;;32.29;39.69
42511;BME280;28141;51.120;17.114;2023-06-22T00:55:50;101879.16;;;32.26;40.06
42511;BME280;28141;51.120;17.114;2023-06-22T00:59:07;101880.52;;;32.23;39.89
42511;BME280;28141;51.120;17.114;2023-06-22T01:02:25;101882.44;;;32.18;40.04
42511;BME280;28141;51.120;17.114;2023-06-22T01:06:17;101886.32;;;32.17;39.95
42511;BME280;28141;51.120;17.114;2023-06-22T01:09:33;101872.82;;;32.14;40.11
42511;BME280;28141;51.120;17.114;2023-06-22T01:12:53;101868.31;;;32.13;39.74
42511;BME280;28141;51.120;17.114;2023-06-22T01:16:38;101876.16;;;32.11;39.99
42511;BME280;28141;51.120;17.114;2023-06-22T01:19:55;101881.77;;;32.11;39.88
42511;BME280;28141;51.120;17.114;2023-06-22T01:30:28;101888.25;;;31.89;40.12
42511;BME280;28141;51.120;17.114;2023-06-22T01:33:45;101889.98;;;31.96;40.59
42511;BME280;28141;51.120;17.114;2023-06-22T01:37:28;101895.59;;;31.96;40.28
42511;BME280;28141;51.120;17.114;2023-06-22T01:40:44;101893.91;;;31.95;40.19
42511;BME280;28141;51.120;17.114;2023-06-22T01:43:59;101895.86;;;31.94;40.92
42511;BME280;28141;51.120;17.114;2023-06-22T01:47:14;101897.50;;;31.90;40.44
42511;BME280;28141;51.120;17.114;2023-06-22T01:50:55;101900.86;;;31.92;40.30
42511;BME280;28141;51.120;17.114;2023-06-22T01:54:09;101894.37;;;31.86;40.34
42511;BME280;28141;51.120;17.114;2023-06-22T01:57:23;101903.54;;;31.82;40.15
42511;BME280;28141;51.120;17.114;2023-06-22T02:00:38;101902.13;;;31.79;39.94
42511;BME280;28141;51.120;17.114;2023-06-22T02:04:24;101910.79;;;31.78;40.46
42511;BME280;28141;51.120;17.114;2023-06-22T02:07:45;101901.79;;;31.76;40.53
42511;BME280;28141;51.120;17.114;2023-06-22T02:11:00;101901.79;;;31.76;40.55
42511;BME280;28141;51.120;17.114;2023-06-22T02:14:43;101902.30;;;31.73;40.59
42511;BME280;28141;51.120;17.114;2023-06-22T02:17:57;101901.41;;;31.67;40.30
42511;BME280;28141;51.120;17.114;2023-06-22T02:21:11;101897.41;;;31.63;40.34
42511;BME280;28141;51.120;17.114;2023-06-22T02:24:24;101896.19;;;31.59;40.53
42511;BME280;28141;51.120;17.114;2023-06-22T02:28:04;101906.83;;;31.57;40.84
42511;BME280;28141;51.120;17.114;2023-06-22T02:31:19;101894.18;;;31.54;40.92
42511;BME280;28141;51.120;17.114;2023-06-22T02:34:33;101907.93;;;31.56;41.03
42511;BME280;28141;51.120;17.114;2023-06-22T02:37:47;101906.73;;;31.52;40.58
42511;BME280;28141;51.120;17.114;2023-06-22T02:41:05;101906.15;;;31.50;41.03
42511;BME280;28141;51.120;17.114;2023-06-22T02:44:46;101910.84;;;31.44;41.03
42511;BME280;28141;51.120;17.114;2023-06-22T02:48:00;101901.84;;;31.42;41.12
42511;BME280;28141;51.120;17.114;2023-06-22T02:51:13;101899.29;;;31.41;41.37
42511;BME280;28141;51.120;17.114;2023-06-22T02:54:28;101897.60;;;31.40;41.19
42511;BME280;28141;51.120;17.114;2023-06-22T02:58:08;101903.70;;;31.37;41.19
42511;BME280;28141;51.120;17.114;2023-06-22T03:01:22;101903.70;;;31.37;41.16
42511;BME280;28141;51.120;17.114;2023-06-22T03:04:37;101901.19;;;31.35;41.13
42511;BME280;28141;51.120;17.114;2023-06-22T03:07:51;101904.23;;;31.34;41.39
42511;BME280;28141;51.120;17.114;2023-06-22T03:11:33;101899.15;;;31.31;41.36
42511;BME280;28141;51.120;17.114;2023-06-22T03:14:47;101909.50;;;31.30;41.15
42511;BME280;28141;51.120;17.114;2023-06-22T03:18:00;101914.24;;;31.30;41.36
42511;BME280;28141;51.120;17.114;2023-06-22T03:21:15;101917.90;;;31.30;41.68
42511;BME280;28141;51.120;17.114;2023-06-22T03:24:56;101934.45;;;31.32;41.41
42511;BME280;28141;51.120;17.114;2023-06-22T03:28:10;101929.34;;;31.29;41.51
42511;BME280;28141;51.120;17.114;2023-06-22T03:31:24;101934.09;;;31.28;41.34
42511;BME280;28141;51.120;17.114;2023-06-22T03:34:38;101937.74;;;31.29;41.54
42511;BME280;28141;51.120;17.114;2023-06-22T03:38:18;101941.64;;;31.28;41.86
42511;BME280;28141;51.120;17.114;2023-06-22T03:41:32;101945.30;;;31.28;42.07
42511;BME280;28141;51.120;17.114;2023-06-22T03:44:46;101950.39;;;31.31;42.26
42511;BME280;28141;51.120;17.114;2023-06-22T03:48:00;101956.25;;;31.30;42.16
42511;BME280;28141;51.120;17.114;2023-06-22T03:51:39;101953.45;;;31.30;42.48
42511;BME280;28141;51.120;17.114;2023-06-22T03:54:53;101949.04;;;31.34;42.85
42511;BME280;28141;51.120;17.114;2023-06-22T03:58:07;101950.74;;;31.35;42.54
42511;BME280;28141;51.120;17.114;2023-06-22T04:01:22;101953.29;;;31.36;43.20
42511;BME280;28141;51.120;17.114;2023-06-22T04:05:03;101967.61;;;31.40;42.74
42511;BME280;28141;51.120;17.114;2023-06-22T04:08:18;101964.55;;;31.41;43.41
42511;BME280;28141;51.120;17.114;2023-06-22T04:11:32;101969.66;;;31.44;42.36
42511;BME280;28141;51.120;17.114;2023-06-22T04:14:46;101965.16;;;31.43;42.77
42511;BME280;28141;51.120;17.114;2023-06-22T04:18:26;101974.15;;;31.45;42.99
42511;BME280;28141;51.120;17.114;2023-06-22T04:21:39;101973.04;;;31.46;42.94
42511;BME280;28141;51.120;17.114;2023-06-22T04:24:54;101984.57;;;31.50;43.19
42511;BME280;28141;51.120;17.114;2023-06-22T04:28:08;101983.47;;;31.51;43.76
42511;BME280;28141;51.120;17.114;2023-06-22T04:31:52;101983.22;;;31.52;43.18
42511;BME280;28141;51.120;17.114;2023-06-22T04:35:07;101981.17;;;31.48;43.47
42511;BME280;28141;51.120;17.114;2023-06-22T04:38:21;101987.46;;;31.55;43.43
42511;BME280;28141;51.120;17.114;2023-06-22T04:41:39;101987.20;;;31.56;43.10
42511;BME280;28141;51.120;17.114;2023-06-22T04:45:22;101986.87;;;31.53;43.39
42511;BME280;28141;51.120;17.114;2023-06-22T04:48:36;101995.37;;;31.58;43.58
42511;BME280;28141;51.120;17.114;2023-06-22T04:51:50;102000.69;;;31.60;43.52
42511;BME280;28141;51.120;17.114;2023-06-22T04:55:06;101997.38;;;31.63;43.31
42511;BME280;28141;51.120;17.114;2023-06-22T04:58:47;101996.52;;;31.62;43.56
42511;BME280;28141;51.120;17.114;2023-06-22T05:02:02;102005.05;;;31.67;43.63
42511;BME280;28141;51.120;17.114;2023-06-22T05:05:19;102005.05;;;31.67;43.80
42511;BME280;28141;51.120;17.114;2023-06-22T05:08:33;102007.07;;;31.72;44.25
42511;BME280;28141;51.120;17.114;2023-06-22T05:12:13;102008.77;;;31.73;44.25
42511;BME280;28141;51.120;17.114;2023-06-22T05:15:26;102002.47;;;31.82;44.13
42511;BME280;28141;51.120;17.114;2023-06-22T05:18:48;101999.76;;;31.87;44.28
42511;BME280;28141;51.120;17.114;2023-06-22T05:22:03;102003.32;;;30.19;45.99
42511;BME280;28141;51.120;17.114;2023-06-22T05:25:43;102009.39;;;28.63;47.07
42511;BME280;28141;51.120;17.114;2023-06-22T05:28:57;102009.18;;;28.10;45.70
42511;BME280;28141;51.120;17.114;2023-06-22T05:32:12;102018.30;;;27.98;44.85
42511;BME280;28141;51.120;17.114;2023-06-22T05:35:26;102014.20;;;27.33;45.32
42511;BME280;28141;51.120;17.114;2023-06-22T05:38:40;101997.34;;;27.96;47.73
42511;BME280;28141;51.120;17.114;2023-06-22T05:41:54;101987.13;;;28.26;50.37
42511;BME280;28141;51.120;17.114;2023-06-22T05:45:34;102000.01;;;28.57;51.14
42511;BME280;28141;51.120;17.114;2023-06-22T05:48:48;101994.36;;;28.64;51.83
42511;BME280;28141;51.120;17.114;2023-06-22T05:52:03;101992.40;;;28.83;52.35
42511;BME280;28141;51.120;17.114;2023-06-22T05:55:18;101995.22;;;28.94;52.48
42511;BME280;28141;51.120;17.114;2023-06-22T05:58:58;101997.71;;;29.26;52.08
42511;BME280;28141;51.120;17.114;2023-06-22T06:02:13;101998.73;;;29.43;51.51
42511;BME280;28141;51.120;17.114;2023-06-22T06:05:27;101998.74;;;29.66;51.13
42511;BME280;28141;51.120;17.114;2023-06-22T06:08:41;101999.82;;;29.65;50.43
42511;BME280;28141;51.120;17.114;2023-06-22T06:12:21;102004.79;;;29.87;51.08
42511;BME280;28141;51.120;17.114;2023-06-22T06:15:35;102002.63;;;29.65;50.66
42511;BME280;28141;51.120;17.114;2023-06-22T06:18:50;102006.27;;;29.01;49.69
42511;BME280;28141;51.120;17.114;2023-06-22T06:22:04;102018.81;;;29.22;47.19
42511;BME280;28141;51.120;17.114;2023-06-22T06:25:44;102038.27;;;28.87;44.56
42511;BME280;28141;51.120;17.114;2023-06-22T06:29:00;102035.34;;;28.09;44.13
42511;BME280;28141;51.120;17.114;2023-06-22T06:32:15;102040.16;;;28.38;45.35
42511;BME280;28141;51.120;17.114;2023-06-22T06:36:27;102022.74;;;28.43;48.94
42511;BME280;28141;51.120;17.114;2023-06-22T06:39:41;102022.45;;;28.81;50.36
42511;BME280;28141;51.120;17.114;2023-06-22T06:42:56;102019.94;;;28.91;51.03
42511;BME280;28141;51.120;17.114;2023-06-22T06:46:10;102020.19;;;29.31;50.80
42511;BME280;28141;51.120;17.114;2023-06-22T06:49:50;102024.84;;;29.49;51.13
42511;BME280;28141;51.120;17.114;2023-06-22T06:53:05;102015.01;;;29.69;51.11
42511;BME280;28141;51.120;17.114;2023-06-22T06:56:20;102027.88;;;29.05;50.02
42511;BME280;28141;51.120;17.114;2023-06-22T06:59:35;102029.94;;;28.98;47.93
42511;BME280;28141;51.120;17.114;2023-06-22T07:03:15;102049.93;;;28.95;45.90
42511;BME280;28141;51.120;17.114;2023-06-22T07:06:29;102046.25;;;28.65;44.80
42511;BME280;28141;51.120;17.114;2023-06-22T07:09:47;102046.98;;;28.42;45.26
42511;BME280;28141;51.120;17.114;2023-06-22T07:13:01;102045.02;;;28.61;47.42
42511;BME280;28141;51.120;17.114;2023-06-22T07:16:43;102047.79;;;28.79;50.03
42511;BME280;28141;51.120;17.114;2023-06-22T07:19:57;102051.56;;;29.15;50.93
42511;BME280;28141;51.120;17.114;2023-06-22T07:23:11;102056.17;;;29.21;51.31
42511;BME280;28141;51.120;17.114;2023-06-22T07:26:25;102048.27;;;29.48;51.28
42511;BME280;28141;51.120;17.114;2023-06-22T07:30:09;102060.69;;;29.63;50.98
42511;BME280;28141;51.120;17.114;2023-06-22T07:33:23;102059.79;;;29.39;49.67
42511;BME280;28141;51.120;17.114;2023-06-22T07:36:37;102067.93;;;29.41;46.77
42511;BME280;28141;51.120;17.114;2023-06-22T07:39:51;102066.45;;;28.79;45.42
42511;BME280;28141;51.120;17.114;2023-06-22T07:43:38;102059.12;;;28.66;44.43
42511;BME280;28141;51.120;17.114;2023-06-22T07:46:52;102054.92;;;28.57;46.69
42511;BME280;28141;51.120;17.114;2023-06-22T07:50:07;102044.84;;;28.74;48.79
42511;BME280;28141;51.120;17.114;2023-06-22T07:53:21;102046.25;;;29.25;50.06
42511;BME280;28141;51.120;17.114;2023-06-22T07:57:03;102050.13;;;29.24;50.99
42511;BME280;28141;51.120;17.114;2023-06-22T08:00:18;102047.44;;;29.59;50.83
42511;BME280;28141;51.120;17.114;2023-06-22T08:03:34;102039.06;;;29.59;51.36
42511;BME280;28141;51.120;17.114;2023-06-22T08:06:48;102046.36;;;29.18;49.70
42511;BME280;28141;51.120;17.114;2023-06-22T08:10:28;102038.25;;;29.28;46.74
42511;BME280;28141;51.120;17.114;2023-06-22T08:13:42;102036.26;;;29.05;45.38
42511;BME280;28141;51.120;17.114;2023-06-22T08:16:56;102042.53;;;29.01;44.39
42511;BME280;28141;51.120;17.114;2023-06-22T08:20:11;102040.87;;;29.12;45.91
42511;BME280;28141;51.120;17.114;2023-06-22T08:23:51;102030.45;;;29.07;48.62
42511;BME280;28141;51.120;17.114;2023-06-22T08:27:07;102021.62;;;29.33;49.91
42511;BME280;28141;51.120;17.114;2023-06-22T08:30:32;102017.56;;;29.59;50.56
42511;BME280;28141;51.120;17.114;2023-06-22T08:33:45;102006.39;;;29.83;50.52
42511;BME280;28141;51.120;17.114;2023-06-22T08:37:26;102007.48;;;29.93;50.38
42511;BME280;28141;51.120;17.114;2023-06-22T08:40:48;102004.30;;;29.43;48.64
42511;BME280;28141;51.120;17.114;2023-06-22T08:44:02;102009.80;;;29.50;46.11
42511;BME280;28141;51.120;17.114;2023-06-22T08:47:18;102008.82;;;29.56;44.25
42511;BME280;28141;51.120;17.114;2023-06-22T08:51:00;102000.98;;;29.23;43.46
42511;BME280;28141;51.120;17.114;2023-06-22T08:54:14;102002.27;;;28.97;45.04
42511;BME280;28141;51.120;17.114;2023-06-22T08:57:28;101994.98;;;28.96;47.43
42511;BME280;28141;51.120;17.114;2023-06-22T09:00:43;102000.74;;;29.24;48.58
42511;BME280;28141;51.120;17.114;2023-06-22T09:04:24;101996.27;;;29.35;50.13
42511;BME280;28141;51.120;17.114;2023-06-22T09:07:38;102003.37;;;29.61;50.77
42511;BME280;28141;51.120;17.114;2023-06-22T09:10:52;102001.67;;;29.71;50.15
42511;BME280;28141;51.120;17.114;2023-06-22T09:14:06;102004.87;;;29.33;48.50
42511;BME280;28141;51.120;17.114;2023-06-22T09:17:46;102011.37;;;29.57;45.51
42511;BME280;28141;51.120;17.114;2023-06-22T09:20:59;102013.00;;;29.23;43.85
42511;BME280;28141;51.120;17.114;2023-06-22T09:24:13;102007.88;;;29.09;43.16
42511;BME280;28141;51.120;17.114;2023-06-22T09:27:27;101997.45;;;29.16;44.99
42511;BME280;28141;51.120;17.114;2023-06-22T09:31:07;102000.48;;;29.14;48.06
42511;BME280;28141;51.120;17.114;2023-06-22T09:34:21;101999.58;;;29.55;48.71
42511;BME280;28141;51.120;17.114;2023-06-22T09:37:35;101999.59;;;29.67;49.52
42511;BME280;28141;51.120;17.114;2023-06-22T09:40:49;101999.84;;;30.00;49.96
42511;BME280;28141;51.120;17.114;2023-06-22T09:44:29;101999.82;;;29.89;48.68
42511;BME280;28141;51.120;17.114;2023-06-22T09:47:43;102007.02;;;29.85;45.52
42511;BME280;28141;51.120;17.114;2023-06-22T09:50:57;101999.96;;;30.05;43.71
42511;BME280;28141;51.120;17.114;2023-06-22T09:54:11;101992.80;;;29.51;45.42
42511;BME280;28141;51.120;17.114;2023-06-22T09:57:51;101989.65;;;29.59;47.78
42511;BME280;28141;51.120;17.114;2023-06-22T10:01:04;101979.56;;;29.58;48.35
42511;BME280;28141;51.120;17.114;2023-06-22T10:04:18;101981.96;;;29.90;49.38
42511;BME280;28141;51.120;17.114;2023-06-22T10:07:32;101980.11;;;30.19;49.17
42511;BME280;28141;51.120;17.114;2023-06-22T10:11:12;101985.50;;;30.48;47.73
42511;BME280;28141;51.120;17.114;2023-06-22T10:14:26;101995.22;;;30.58;47.70
42511;BME280;28141;51.120;17.114;2023-06-22T10:17:43;101989.39;;;30.47;46.90
42511;BME280;28141;51.120;17.114;2023-06-22T10:20:57;101982.88;;;30.70;46.63
42511;BME280;28141;51.120;17.114;2023-06-22T10:24:37;101983.95;;;30.98;46.30
42511;BME280;28141;51.120;17.114;2023-06-22T10:27:57;101969.91;;;31.09;46.14
42511;BME280;28141;51.120;17.114;2023-06-22T10:31:10;101950.85;;;30.95;45.44
42511;BME280;28141;51.120;17.114;2023-06-22T10:34:24;101948.19;;;31.33;45.24
42511;BME280;28141;51.120;17.114;2023-06-22T10:38:05;101955.48;;;31.34;45.07
42511;BME280;28141;51.120;17.114;2023-06-22T10:41:19;101941.55;;;31.56;44.91
42511;BME280;28141;51.120;17.114;2023-06-22T10:44:33;101938.91;;;31.49;45.35
42511;BME280;28141;51.120;17.114;2023-06-22T10:47:47;101940.75;;;31.77;44.28
42511;BME280;28141;51.120;17.114;2023-06-22T10:51:29;101944.21;;;31.84;43.79
42511;BME280;28141;51.120;17.114;2023-06-22T10:54:45;101944.30;;;32.11;42.84
42511;BME280;28141;51.120;17.114;2023-06-22T10:57:59;101941.98;;;31.65;41.58
42511;BME280;28141;51.120;17.114;2023-06-22T11:01:13;101941.23;;;31.19;42.55
42511;BME280;28141;51.120;17.114;2023-06-22T11:04:55;101929.60;;;31.27;44.09
42511;BME280;28141;51.120;17.114;2023-06-22T11:08:09;101926.64;;;31.17;45.29
42511;BME280;28141;51.120;17.114;2023-06-22T11:11:23;101921.89;;;31.34;44.94
42511;BME280;28141;51.120;17.114;2023-06-22T11:14:38;101929.29;;;31.62;44.70
42511;BME280;28141;51.120;17.114;2023-06-22T11:18:18;101939.84;;;31.93;43.62
42511;BME280;28141;51.120;17.114;2023-06-22T11:21:32;101917.80;;;32.02;43.54
42511;BME280;28141;51.120;17.114;2023-06-22T11:24:46;101921.47;;;32.24;43.04
42511;BME280;28141;51.120;17.114;2023-06-22T11:28:03;101925.13;;;32.25;42.54
42511;BME280;28141;51.120;17.114;2023-06-22T11:31:46;101928.34;;;31.35;42.50
42511;BME280;28141;51.120;17.114;2023-06-22T11:35:00;101921.84;;;30.84;42.65
42511;BME280;28141;51.120;17.114;2023-06-22T11:38:13;101930.22;;;31.12;41.74
42511;BME280;28141;51.120;17.114;2023-06-22T11:41:27;101920.35;;;30.93;42.89
42511;BME280;28141;51.120;17.114;2023-06-22T11:45:08;101918.66;;;30.92;44.82
42511;BME280;28141;51.120;17.114;2023-06-22T11:48:22;101915.57;;;30.94;45.28
42511;BME280;28141;51.120;17.114;2023-06-22T11:51:36;101909.95;;;31.61;45.45
42511;BME280;28141;51.120;17.114;2023-06-22T11:54:50;101901.33;;;32.06;43.51
42511;BME280;28141;51.120;17.114;2023-06-22T11:58:30;101902.88;;;32.40;43.13
42511;BME280;28141;51.120;17.114;2023-06-22T12:01:44;101899.73;;;32.37;43.28
42511;BME280;28141;51.120;17.114;2023-06-22T12:04:59;101902.45;;;32.80;42.30
42511;BME280;28141;51.120;17.114;2023-06-22T12:08:13;101901.34;;;32.81;42.27
42511;BME280;28141;51.120;17.114;2023-06-22T12:11:56;101895.21;;;32.31;40.09
42511;BME280;28141;51.120;17.114;2023-06-22T12:15:10;101892.03;;;32.22;38.55
42511;BME280;28141;51.120;17.114;2023-06-22T12:18:24;101876.47;;;32.14;38.55
42511;BME280;28141;51.120;17.114;2023-06-22T12:21:38;101875.20;;;32.00;40.06
42511;BME280;28141;51.120;17.114;2023-06-22T12:25:21;101876.57;;;31.98;42.64
42511;BME280;28141;51.120;17.114;2023-06-22T12:28:35;101867.76;;;32.11;43.50
42511;BME280;28141;51.120;17.114;2023-06-22T12:31:49;101870.45;;;32.01;41.25
42511;BME280;28141;51.120;17.114;2023-06-22T12:35:04;101866.02;;;32.58;38.62
42511;BME280;28141;51.120;17.114;2023-06-22T12:38:44;101853.20;;;32.68;35.97
42511;BME280;28141;51.120;17.114;2023-06-22T12:41:58;101865.09;;;32.75;34.82
42511;BME280;28141;51.120;17.114;2023-06-22T12:45:12;101860.41;;;32.58;33.87
42511;BME280;28141;51.120;17.114;2023-06-22T12:48:27;101859.18;;;32.44;34.47
42511;BME280;28141;51.120;17.114;2023-06-22T12:52:10;101853.98;;;32.31;35.98
42511;BME280;28141;51.120;17.114;2023-06-22T12:55:24;101845.88;;;32.67;38.30
42511;BME280;28141;51.120;17.114;2023-06-22T12:58:38;101833.67;;;32.78;39.66
42511;BME280;28141;51.120;17.114;2023-06-22T13:01:52;101831.42;;;32.75;40.39
42511;BME280;28141;51.120;17.114;2023-06-22T13:05:32;101842.70;;;32.53;39.14
42511;BME280;28141;51.120;17.114;2023-06-22T13:08:49;101838.48;;;33.19;35.84
42511;BME280;28141;51.120;17.114;2023-06-22T13:12:04;101856.49;;;33.23;34.76
42511;BME280;28141;51.120;17.114;2023-06-22T13:15:18;101845.84;;;33.25;33.36
42511;BME280;28141;51.120;17.114;2023-06-22T13:18:58;101848.41;;;32.95;33.57
42511;BME280;28141;51.120;17.114;2023-06-22T13:25:37;101827.50;;;32.76;38.43
42511;BME280;28141;51.120;17.114;2023-06-22T13:28:52;101826.63;;;33.12;38.78
42511;BME280;28141;51.120;17.114;2023-06-22T13:32:32;101829.89;;;33.36;38.84
42511;BME280;28141;51.120;17.114;2023-06-22T13:35:46;101825.75;;;33.54;37.00
42511;BME280;28141;51.120;17.114;2023-06-22T13:39:00;101836.26;;;33.74;34.24
42511;BME280;28141;51.120;17.114;2023-06-22T13:42:14;101835.48;;;33.88;32.39
42511;BME280;28141;51.120;17.114;2023-06-22T13:45:54;101829.84;;;33.78;31.42
42511;BME280;28141;51.120;17.114;2023-06-22T13:49:08;101829.18;;;33.66;30.96
42511;BME280;28141;51.120;17.114;2023-06-22T13:52:22;101823.96;;;33.32;32.51
42511;BME280;28141;51.120;17.114;2023-06-22T13:55:36;101814.55;;;33.59;35.15
42511;BME280;28141;51.120;17.114;2023-06-22T13:59:16;101814.25;;;34.33;35.35
42511;BME280;28141;51.120;17.114;2023-06-22T14:02:30;101805.80;;;34.94;34.29
42511;BME280;28141;51.120;17.114;2023-06-22T14:05:44;101813.91;;;35.46;33.87
42511;BME280;28141;51.120;17.114;2023-06-22T14:08:58;101804.42;;;35.86;33.03
42511;BME280;28141;51.120;17.114;2023-06-22T14:12:41;101803.34;;;36.26;32.66
42511;BME280;28141;51.120;17.114;2023-06-22T14:15:55;101798.62;;;36.55;32.07
42511;BME280;28141;51.120;17.114;2023-06-22T14:19:09;101794.43;;;36.82;31.75
42511;BME280;28141;51.120;17.114;2023-06-22T14:22:23;101784.86;;;37.07;32.00
42511;BME280;28141;51.120;17.114;2023-06-22T14:26:02;101788.57;;;37.31;31.34
42511;BME280;28141;51.120;17.114;2023-06-22T14:29:15;101786.92;;;37.49;31.17
42511;BME280;28141;51.120;17.114;2023-06-22T14:32:29;101776.02;;;37.61;30.94
42511;BME280;28141;51.120;17.114;2023-06-22T14:35:43;101777.59;;;37.72;30.32
42511;BME280;28141;51.120;17.114;2023-06-22T14:39:22;101776.91;;;37.80;30.75
42511;BME280;28141;51.120;17.114;2023-06-22T14:42:35;101778.20;;;37.88;30.99
42511;BME280;28141;51.120;17.114;2023-06-22T14:45:49;101767.98;;;37.92;30.71
42511;BME280;28141;51.120;17.114;2023-06-22T14:49:03;101779.19;;;37.97;30.61
42511;BME280;28141;51.120;17.114;2023-06-22T14:52:46;101762.27;;;38.16;30.46
42511;BME280;28141;51.120;17.114;2023-06-22T14:56:00;101756.87;;;38.33;30.37
42511;BME280;28141;51.120;17.114;2023-06-22T14:59:15;101760.80;;;38.51;30.24
42511;BME280;28141;51.120;17.114;2023-06-22T15:02:29;101759.11;;;38.68;30.04
42511;BME280;28141;51.120;17.114;2023-06-22T15:05:45;101748.76;;;38.91;29.75
42511;BME280;28141;51.120;17.114;2023-06-22T15:09:24;101752.46;;;39.19;29.33
42511;BME280;28141;51.120;17.114;2023-06-22T15:12:38;101743.83;;;39.38;29.08
42511;BME280;28141;51.120;17.114;2023-06-22T15:15:53;101730.91;;;39.59;28.91
42511;BME280;28141;51.120;17.114;2023-06-22T15:19:07;101720.77;;;39.81;28.52
42511;BME280;28141;51.120;17.114;2023-06-22T15:22:47;101728.18;;;40.04;28.41
42511;BME280;28141;51.120;17.114;2023-06-22T15:26:04;101721.98;;;40.24;28.22
42511;BME280;28141;51.120;17.114;2023-06-22T15:29:18;101727.63;;;40.38;27.98
42511;BME280;28141;51.120;17.114;2023-06-22T15:32:32;101720.72;;;40.53;27.82
42511;BME280;28141;51.120;17.114;2023-06-22T15:36:12;101729.55;;;40.73;27.58
42511;BME280;28141;51.120;17.114;2023-06-22T15:39:26;101719.26;;;40.86;27.54
42511;BME280;28141;51.120;17.114;2023-06-22T15:42:40;101719.95;;;41.00;27.39
42511;BME280;28141;51.120;17.114;2023-06-22T15:45:54;101711.13;;;41.10;26.84
42511;BME280;28141;51.120;17.114;2023-06-22T15:49:34;101711.87;;;41.25;27.05
42511;BME280;28141;51.120;17.114;2023-06-22T15:52:48;101705.88;;;41.35;26.97
42511;BME280;28141;51.120;17.114;2023-06-22T15:56:05;101706.25;;;41.42;26.71
42511;BME280;28141;51.120;17.114;2023-06-22T15:59:23;101700.75;;;41.54;26.85
42511;BME280;28141;51.120;17.114;2023-06-22T16:03:03;101700.45;;;41.64;26.68
42511;BME280;28141;51.120;17.114;2023-06-22T16:06:17;101695.94;;;41.72;26.85
42511;BME280;28141;51.120;17.114;2023-06-22T16:09:31;101685.20;;;41.77;26.60
42511;BME280;28141;51.120;17.114;2023-06-22T16:12:44;101680.52;;;41.81;26.59
42511;BME280;28141;51.120;17.114;2023-06-22T16:16:24;101673.84;;;41.86;26.50
42511;BME280;28141;51.120;17.114;2023-06-22T16:19:38;101656.77;;;41.86;26.77
42511;BME280;28141;51.120;17.114;2023-06-22T16:22:52;101657.41;;;41.91;26.52
42511;BME280;28141;51.120;17.114;2023-06-22T16:26:06;101665.29;;;41.95;26.49
42511;BME280;28141;51.120;17.114;2023-06-22T16:29:46;101662.45;;;41.95;26.50
42511;BME280;28141;51.120;17.114;2023-06-22T16:33:01;101663.30;;;42.04;26.33
42511;BME280;28141;51.120;17.114;2023-06-22T16:36:15;101655.26;;;42.06;26.12
42511;BME280;28141;51.120;17.114;2023-06-22T16:39:30;101652.88;;;42.08;26.40
42511;BME280;28141;51.120;17.114;2023-06-22T16:43:10;101644.71;;;42.06;26.41
42511;BME280;28141;51.120;17.114;2023-06-22T16:46:23;101639.84;;;41.98;26.45
42511;BME280;28141;51.120;17.114;2023-06-22T16:49:37;101645.91;;;41.97;26.46
42511;BME280;28141;51.120;17.114;2023-06-22T16:52:51;101644.70;;;41.98;26.54
42511;BME280;28141;51.120;17.114;2023-06-22T16:56:31;101647.71;;;41.93;26.57
42511;BME280;28141;51.120;17.114;2023-06-22T16:59:46;101643.34;;;41.86;26.55
42511;BME280;28141;51.120;17.114;2023-06-22T17:03:03;101639.16;;;41.75;26.83
42511;BME280;28141;51.120;17.114;2023-06-22T17:06:19;101632.83;;;41.61;26.93
42511;BME280;28141;51.120;17.114;2023-06-22T17:09:59;101626.60;;;41.42;27.06
42511;BME280;28141;51.120;17.114;2023-06-22T17:13:13;101618.73;;;41.30;27.03
42511;BME280;28141;51.120;17.114;2023-06-22T17:16:31;101616.87;;;41.26;27.20
42511;BME280;28141;51.120;17.114;2023-06-22T17:19:46;101604.66;;;41.25;27.27
42511;BME280;28141;51.120;17.114;2023-06-22T17:23:30;101610.17;;;41.22;27.32
42511;BME280;28141;51.120;17.114;2023-06-22T17:26:54;101599.28;;;41.06;27.49
42511;BME280;28141;51.120;17.114;2023-06-22T17:30:10;101598.73;;;40.87;27.49